sensor_id;sensor_type;location;lat;lon;timestamp;P1;durP1;ratioP1;P2;durP2;ratioP2
8550;SDS011;4313;42.000;21.380;2022-08-14T10:03:58;3.92;;;3.63;;
8550;SDS011;4313;42.000;21.380;2022-08-14T10:06:26;3.90;;;3.60;;
8550;SDS011;4313;42.000;21.380;2022-08-14T10:08:56;3.90;;;3.60;;
8550;SDS011;4313;42.000;21.380;2022-08-14T10:11:26;4.30;;;4.00;;
8550;SDS011;4313;42.000;21.380;2022-08-14T10:14:10;3.60;;;3.30;;
8550;SDS011;4313;42.000;21.380;2022-08-14T10:16:41;3.17;;;2.88;;
8550;SDS011;4313;42.000;21.380;2022-08-14T10:19:12;3.45;;;3.17;;
8550;SDS011;4313;42.000;21.380;2022-08-14T10:21:40;3.70;;;3.38;;
8550;SDS011;4313;42.000;21.380;2022-08-14T10:24:08;4.32;;;3.50;;
8550;SDS011;4313;42.000;21.380;2022-08-14T10:26:37;4.20;;;3.70;;
8550;SDS011;4313;42.000;21.380;2022-08-14T10:29:10;4.32;;;3.92;;
8550;SDS011;4313;42.000;21.380;2022-08-14T10:31:41;3.75;;;3.45;;
8550;SDS011;4313;42.000;21.380;2022-08-14T10:34:09;4.15;;;3.85;;
8550;SDS011;4313;42.000;21.380;2022-08-14T10:36:40;4.28;;;3.88;;
8550;SDS011;4313;42.000;21.380;2022-08-14T10:39:14;3.65;;;3.30;;
8550;SDS011;4313;42.000;21.380;2022-08-14T10:41:44;3.60;;;3.30;;
8550;SDS011;4313;42.000;21.380;2022-08-14T10:44:12;4.07;;;3.78;;
8550;SDS011;4313;42.000;21.380;2022-08-14T10:46:44;3.53;;;3.33;;
8550;SDS011;4313;42.000;21.380;2022-08-14T10:49:17;3.30;;;3.00;;
8550;SDS011;4313;42.000;21.380;2022-08-14T10:51:56;3.33;;;3.08;;
8550;SDS011;4313;42.000;21.380;2022-08-14T10:54:29;2.97;;;2.78;;
8550;SDS011;4313;42.000;21.380;2022-08-14T10:56:57;3.15;;;2.95;;
8550;SDS011;4313;42.000;21.380;2022-08-14T10:59:40;3.30;;;3.00;;
8550;SDS011;4313;42.000;21.380;2022-08-14T11:02:16;3.03;;;2.83;;
8550;SDS011;4313;42.000;21.380;2022-08-14T11:05:06;3.03;;;2.83;;
8550;SDS011;4313;42.000;21.380;2022-08-14T11:07:36;3.28;;;2.97;;
8550;SDS011;4313;42.000;21.380;2022-08-14T11:10:05;3.20;;;2.90;;
8550;SDS011;4313;42.000;21.380;2022-08-14T11:12:38;4.30;;;3.10;;
8550;SDS011;4313;42.000;21.380;2022-08-14T11:15:11;3.05;;;2.75;;
8550;SDS011;4313;42.000;21.380;2022-08-14T11:17:38;2.90;;;2.70;;
8550;SDS011;4313;42.000;21.380;2022-08-14T11:20:08;3.30;;;3.00;;
8550;SDS011;4313;42.000;21.380;2022-08-14T11:22:37;3.05;;;2.85;;
8550;SDS011;4313;42.000;21.380;2022-08-14T11:25:09;2.47;;;2.28;;
8550;SDS011;4313;42.000;21.380;2022-08-14T11:27:38;2.50;;;2.30;;
8550;SDS011;4313;42.000;21.380;2022-08-14T11:30:07;4.00;;;2.80;;
8550;SDS011;4313;42.000;21.380;2022-08-14T11:32:37;2.72;;;2.53;;
8550;SDS011;4313;42.000;21.380;2022-08-14T11:35:11;5.57;;;5.03;;
8550;SDS011;4313;42.000;21.380;2022-08-14T11:37:50;2.97;;;2.78;;
8550;SDS011;4313;42.000;21.380;2022-08-14T11:40:18;3.03;;;2.83;;
8550;SDS011;4313;42.000;21.380;2022-08-14T11:42:46;3.95;;;3.55;;
8550;SDS011;4313;42.000;21.380;2022-08-14T11:45:14;4.13;;;3.72;;
8550;SDS011;4313;42.000;21.380;2022-08-14T11:47:42;5.20;;;4.70;;
8550;SDS011;4313;42.000;21.380;2022-08-14T11:50:18;3.95;;;3.20;;
8550;SDS011;4313;42.000;21.380;2022-08-14T11:52:47;3.15;;;2.85;;
8550;SDS011;4313;42.000;21.380;2022-08-14T11:55:14;3.17;;;2.97;;
8550;SDS011;4313;42.000;21.380;2022-08-14T11:57:42;3.30;;;3.10;;
8550;SDS011;4313;42.000;21.380;2022-08-14T12:00:10;4.00;;;3.00;;
8550;SDS011;4313;42.000;21.380;2022-08-14T12:02:49;3.03;;;2.83;;
8550;SDS011;4313;42.000;21.380;2022-08-14T12:05:28;3.10;;;2.90;;
8550;SDS011;4313;42.000;21.380;2022-08-14T12:07:56;3.35;;;3.05;;
8550;SDS011;4313;42.000;21.380;2022-08-14T12:10:23;3.60;;;3.30;;
8550;SDS011;4313;42.000;21.380;2022-08-14T12:12:51;3.35;;;3.05;;
8550;SDS011;4313;42.000;21.380;2022-08-14T12:15:30;3.80;;;3.50;;
8550;SDS011;4313;42.000;21.380;2022-08-14T12:17:58;3.28;;;2.97;;
8550;SDS011;4313;42.000;21.380;2022-08-14T12:20:30;3.00;;;2.80;;
8550;SDS011;4313;42.000;21.380;2022-08-14T12:23:01;3.50;;;3.20;;
8550;SDS011;4313;42.000;21.380;2022-08-14T12:25:29;2.88;;;2.67;;
8550;SDS011;4313;42.000;21.380;2022-08-14T12:27:57;3.28;;;3.05;;
8550;SDS011;4313;42.000;21.380;2022-08-14T12:30:30;3.25;;;3.05;;
8550;SDS011;4313;42.000;21.380;2022-08-14T12:32:59;2.80;;;2.55;;
8550;SDS011;4313;42.000;21.380;2022-08-14T12:38:11;2.97;;;2.13;;
8550;SDS011;4313;42.000;21.380;2022-08-14T12:40:45;2.03;;;1.92;;
8550;SDS011;4313;42.000;21.380;2022-08-14T12:43:13;2.80;;;2.60;;
8550;SDS011;4313;42.000;21.380;2022-08-14T12:45:44;4.18;;;2.97;;
8550;SDS011;4313;42.000;21.380;2022-08-14T12:48:14;3.00;;;2.70;;
8550;SDS011;4313;42.000;21.380;2022-08-14T12:50:44;4.45;;;3.40;;
8550;SDS011;4313;42.000;21.380;2022-08-14T12:53:12;5.35;;;4.22;;
8550;SDS011;4313;42.000;21.380;2022-08-14T12:55:39;7.75;;;4.95;;
8550;SDS011;4313;42.000;21.380;2022-08-14T12:58:08;5.20;;;4.07;;
8550;SDS011;4313;42.000;21.380;2022-08-14T13:00:37;5.80;;;4.63;;
8550;SDS011;4313;42.000;21.380;2022-08-14T13:03:05;3.90;;;3.50;;
8550;SDS011;4313;42.000;21.380;2022-08-14T13:05:32;6.00;;;5.18;;
8550;SDS011;4313;42.000;21.380;2022-08-14T13:08:05;5.50;;;4.82;;
8550;SDS011;4313;42.000;21.380;2022-08-14T13:10:32;5.53;;;4.00;;
8550;SDS011;4313;42.000;21.380;2022-08-14T13:13:00;5.63;;;4.72;;
8550;SDS011;4313;42.000;21.380;2022-08-14T13:15:27;5.53;;;4.00;;
8550;SDS011;4313;42.000;21.380;2022-08-14T13:17:55;4.18;;;3.78;;
8550;SDS011;4313;42.000;21.380;2022-08-14T13:20:24;4.68;;;4.18;;
8550;SDS011;4313;42.000;21.380;2022-08-14T13:22:53;5.10;;;4.10;;
8550;SDS011;4313;42.000;21.380;2022-08-14T13:25:23;5.40;;;3.70;;
8550;SDS011;4313;42.000;21.380;2022-08-14T13:27:54;5.10;;;4.60;;
8550;SDS011;4313;42.000;21.380;2022-08-14T13:30:24;5.00;;;4.10;;
8550;SDS011;4313;42.000;21.380;2022-08-14T13:32:52;6.40;;;5.07;;
8550;SDS011;4313;42.000;21.380;2022-08-14T13:35:20;4.57;;;4.10;;
8550;SDS011;4313;42.000;21.380;2022-08-14T13:37:47;5.25;;;4.75;;
8550;SDS011;4313;42.000;21.380;2022-08-14T13:40:15;7.18;;;5.05;;
8550;SDS011;4313;42.000;21.380;2022-08-14T13:42:46;5.95;;;5.35;;
8550;SDS011;4313;42.000;21.380;2022-08-14T13:45:34;5.88;;;5.25;;
8550;SDS011;4313;42.000;21.380;2022-08-14T13:48:01;5.25;;;4.75;;
8550;SDS011;4313;42.000;21.380;2022-08-14T13:50:28;4.65;;;4.15;;
8550;SDS011;4313;42.000;21.380;2022-08-14T13:52:56;3.90;;;3.50;;
8550;SDS011;4313;42.000;21.380;2022-08-14T13:55:26;5.10;;;4.20;;
8550;SDS011;4313;42.000;21.380;2022-08-14T13:57:56;3.95;;;3.63;;
8550;SDS011;4313;42.000;21.380;2022-08-14T14:00:25;3.85;;;3.45;;
8550;SDS011;4313;42.000;21.380;2022-08-14T14:02:52;4.97;;;3.85;;
8550;SDS011;4313;42.000;21.380;2022-08-14T14:05:20;4.95;;;3.58;;
8550;SDS011;4313;42.000;21.380;2022-08-14T14:07:49;4.95;;;4.45;;
8550;SDS011;4313;42.000;21.380;2022-08-14T14:10:20;5.22;;;4.72;;
8550;SDS011;4313;42.000;21.380;2022-08-14T14:12:48;4.90;;;4.40;;
8550;SDS011;4313;42.000;21.380;2022-08-14T14:15:17;3.67;;;3.38;;
8550;SDS011;4313;42.000;21.380;2022-08-14T14:17:45;4.18;;;3.80;;
8550;SDS011;4313;42.000;21.380;2022-08-14T14:20:14;3.75;;;3.45;;
8550;SDS011;4313;42.000;21.380;2022-08-14T14:22:43;3.80;;;3.50;;
8550;SDS011;4313;42.000;21.380;2022-08-14T14:25:12;4.55;;;4.15;;
8550;SDS011;4313;42.000;21.380;2022-08-14T14:27:40;5.38;;;4.70;;
8550;SDS011;4313;42.000;21.380;2022-08-14T14:30:09;5.40;;;4.90;;
8550;SDS011;4313;42.000;21.380;2022-08-14T14:32:40;5.63;;;4.45;;
8550;SDS011;4313;42.000;21.380;2022-08-14T14:35:10;4.63;;;4.22;;
8550;SDS011;4313;42.000;21.380;2022-08-14T14:37:40;4.40;;;4.00;;
8550;SDS011;4313;42.000;21.380;2022-08-14T14:40:10;5.13;;;4.43;;
8550;SDS011;4313;42.000;21.380;2022-08-14T14:42:42;6.18;;;5.45;;
8550;SDS011;4313;42.000;21.380;2022-08-14T14:45:12;6.45;;;5.60;;
8550;SDS011;4313;42.000;21.380;2022-08-14T14:47:42;6.72;;;5.68;;
8550;SDS011;4313;42.000;21.380;2022-08-14T14:50:09;5.47;;;4.65;;
8550;SDS011;4313;42.000;21.380;2022-08-14T14:52:37;4.15;;;3.78;;
8550;SDS011;4313;42.000;21.380;2022-08-14T14:55:06;7.10;;;5.72;;
8550;SDS011;4313;42.000;21.380;2022-08-14T14:57:36;5.50;;;4.53;;
8550;SDS011;4313;42.000;21.380;2022-08-14T15:00:05;4.97;;;4.50;;
8550;SDS011;4313;42.000;21.380;2022-08-14T15:02:34;4.75;;;4.32;;
8550;SDS011;4313;42.000;21.380;2022-08-14T15:05:07;5.20;;;4.25;;
8550;SDS011;4313;42.000;21.380;2022-08-14T15:07:35;4.20;;;3.80;;
8550;SDS011;4313;42.000;21.380;2022-08-14T15:10:03;4.40;;;4.00;;
8550;SDS011;4313;42.000;21.380;2022-08-14T15:12:31;4.65;;;4.22;;
8550;SDS011;4313;42.000;21.380;2022-08-14T15:14:58;5.80;;;5.20;;
8550;SDS011;4313;42.000;21.380;2022-08-14T15:17:25;7.95;;;5.70;;
8550;SDS011;4313;42.000;21.380;2022-08-14T15:20:00;8.05;;;6.22;;
8550;SDS011;4313;42.000;21.380;2022-08-14T15:22:30;5.78;;;5.18;;
8550;SDS011;4313;42.000;21.380;2022-08-14T15:24:57;5.20;;;4.47;;
8550;SDS011;4313;42.000;21.380;2022-08-14T15:27:24;4.55;;;4.15;;
8550;SDS011;4313;42.000;21.380;2022-08-14T15:29:53;4.13;;;3.67;;
8550;SDS011;4313;42.000;21.380;2022-08-14T15:32:20;4.60;;;4.20;;
8550;SDS011;4313;42.000;21.380;2022-08-14T15:34:47;4.13;;;3.83;;
8550;SDS011;4313;42.000;21.380;2022-08-14T15:37:14;5.53;;;4.18;;
8550;SDS011;4313;42.000;21.380;2022-08-14T15:39:44;4.80;;;4.28;;
8550;SDS011;4313;42.000;21.380;2022-08-14T15:42:11;4.00;;;3.63;;
8550;SDS011;4313;42.000;21.380;2022-08-14T15:44:38;3.92;;;3.60;;
8550;SDS011;4313;42.000;21.380;2022-08-14T15:47:06;4.00;;;3.70;;
8550;SDS011;4313;42.000;21.380;2022-08-14T15:49:34;3.97;;;3.58;;
8550;SDS011;4313;42.000;21.380;2022-08-14T15:52:02;3.42;;;3.08;;
8550;SDS011;4313;42.000;21.380;2022-08-14T15:54:30;5.35;;;3.63;;
8550;SDS011;4313;42.000;21.380;2022-08-14T15:57:00;3.33;;;3.03;;
8550;SDS011;4313;42.000;21.380;2022-08-14T15:59:30;3.72;;;3.42;;
8550;SDS011;4313;42.000;21.380;2022-08-14T16:02:18;3.78;;;3.25;;
8550;SDS011;4313;42.000;21.380;2022-08-14T16:04:45;3.70;;;3.40;;
8550;SDS011;4313;42.000;21.380;2022-08-14T16:07:13;3.17;;;2.88;;
8550;SDS011;4313;42.000;21.380;2022-08-14T16:09:40;3.28;;;2.92;;
8550;SDS011;4313;42.000;21.380;2022-08-14T16:12:09;3.45;;;3.15;;
8550;SDS011;4313;42.000;21.380;2022-08-14T16:14:36;3.05;;;2.45;;
8550;SDS011;4313;42.000;21.380;2022-08-14T16:17:03;3.55;;;2.50;;
8550;SDS011;4313;42.000;21.380;2022-08-14T16:19:32;2.83;;;2.63;;
8550;SDS011;4313;42.000;21.380;2022-08-14T16:21:59;3.50;;;2.40;;
8550;SDS011;4313;42.000;21.380;2022-08-14T16:24:28;3.10;;;2.80;;
8550;SDS011;4313;42.000;21.380;2022-08-14T16:26:59;4.00;;;2.67;;
8550;SDS011;4313;42.000;21.380;2022-08-14T16:29:30;4.20;;;3.80;;
8550;SDS011;4313;42.000;21.380;2022-08-14T16:31:58;3.08;;;2.88;;
8550;SDS011;4313;42.000;21.380;2022-08-14T16:34:25;9.13;;;7.80;;
8550;SDS011;4313;42.000;21.380;2022-08-14T16:36:53;3.47;;;3.17;;
8550;SDS011;4313;42.000;21.380;2022-08-14T16:39:22;3.00;;;2.63;;
8550;SDS011;4313;42.000;21.380;2022-08-14T16:41:50;5.15;;;4.45;;
8550;SDS011;4313;42.000;21.380;2022-08-14T16:44:18;3.55;;;3.10;;
8550;SDS011;4313;42.000;21.380;2022-08-14T16:46:47;3.72;;;2.83;;
8550;SDS011;4313;42.000;21.380;2022-08-14T16:49:15;3.35;;;3.05;;
8550;SDS011;4313;42.000;21.380;2022-08-14T16:51:43;3.60;;;3.30;;
8550;SDS011;4313;42.000;21.380;2022-08-14T16:54:11;3.47;;;3.17;;
8550;SDS011;4313;42.000;21.380;2022-08-14T16:56:42;2.92;;;2.70;;
8550;SDS011;4313;42.000;21.380;2022-08-14T16:59:10;3.58;;;3.28;;
8550;SDS011;4313;42.000;21.380;2022-08-14T17:01:39;3.22;;;3.03;;
8550;SDS011;4313;42.000;21.380;2022-08-14T17:04:10;4.10;;;3.10;;
8550;SDS011;4313;42.000;21.380;2022-08-14T17:06:39;3.00;;;2.80;;
8550;SDS011;4313;42.000;21.380;2022-08-14T17:12:04;3.47;;;3.17;;
8550;SDS011;4313;42.000;21.380;2022-08-14T17:14:54;3.95;;;3.50;;
8550;SDS011;4313;42.000;21.380;2022-08-14T17:17:40;3.70;;;3.40;;
8550;SDS011;4313;42.000;21.380;2022-08-14T17:20:10;3.40;;;3.10;;
8550;SDS011;4313;42.000;21.380;2022-08-14T17:22:42;4.15;;;3.75;;
8550;SDS011;4313;42.000;21.380;2022-08-14T17:25:15;4.50;;;3.80;;
8550;SDS011;4313;42.000;21.380;2022-08-14T17:27:43;4.25;;;3.85;;
8550;SDS011;4313;42.000;21.380;2022-08-14T17:30:11;4.07;;;3.58;;
8550;SDS011;4313;42.000;21.380;2022-08-14T17:32:39;3.47;;;3.17;;
8550;SDS011;4313;42.000;21.380;2022-08-14T17:35:08;4.13;;;3.40;;
8550;SDS011;4313;42.000;21.380;2022-08-14T17:37:39;3.88;;;3.58;;
8550;SDS011;4313;42.000;21.380;2022-08-14T17:40:11;4.45;;;4.00;;
8550;SDS011;4313;42.000;21.380;2022-08-14T17:42:46;5.15;;;4.28;;
8550;SDS011;4313;42.000;21.380;2022-08-14T17:45:21;5.18;;;4.00;;
8550;SDS011;4313;42.000;21.380;2022-08-14T17:47:52;5.82;;;4.57;;
8550;SDS011;4313;42.000;21.380;2022-08-14T17:53:10;4.18;;;3.72;;
8550;SDS011;4313;42.000;21.380;2022-08-14T17:55:38;4.45;;;4.05;;
8550;SDS011;4313;42.000;21.380;2022-08-14T17:58:08;6.03;;;4.22;;
8550;SDS011;4313;42.000;21.380;2022-08-14T18:00:35;5.10;;;4.18;;
8550;SDS011;4313;42.000;21.380;2022-08-14T18:03:02;5.90;;;4.18;;
8550;SDS011;4313;42.000;21.380;2022-08-14T18:05:31;5.00;;;4.38;;
8550;SDS011;4313;42.000;21.380;2022-08-14T18:08:03;4.97;;;4.47;;
8550;SDS011;4313;42.000;21.380;2022-08-14T18:10:34;5.13;;;4.28;;
8550;SDS011;4313;42.000;21.380;2022-08-14T18:13:02;4.82;;;4.43;;
8550;SDS011;4313;42.000;21.380;2022-08-14T18:15:31;4.72;;;4.22;;
8550;SDS011;4313;42.000;21.380;2022-08-14T18:17:59;4.90;;;4.40;;
8550;SDS011;4313;42.000;21.380;2022-08-14T18:20:28;8.32;;;7.25;;
8550;SDS011;4313;42.000;21.380;2022-08-14T18:22:56;7.90;;;5.90;;
8550;SDS011;4313;42.000;21.380;2022-08-14T18:25:25;5.43;;;4.93;;
8550;SDS011;4313;42.000;21.380;2022-08-14T18:27:53;4.75;;;4.20;;
8550;SDS011;4313;42.000;21.380;2022-08-14T18:30:21;4.75;;;4.35;;
8550;SDS011;4313;42.000;21.380;2022-08-14T18:32:50;4.82;;;4.43;;
8550;SDS011;4313;42.000;21.380;2022-08-14T18:35:19;5.22;;;4.28;;
8550;SDS011;4313;42.000;21.380;2022-08-14T18:37:48;4.50;;;4.10;;
8550;SDS011;4313;42.000;21.380;2022-08-14T18:40:23;4.32;;;3.92;;
8550;SDS011;4313;42.000;21.380;2022-08-14T18:42:59;4.47;;;4.07;;
8550;SDS011;4313;42.000;21.380;2022-08-14T18:45:28;4.78;;;3.85;;
8550;SDS011;4313;42.000;21.380;2022-08-14T18:48:06;4.90;;;4.20;;
8550;SDS011;4313;42.000;21.380;2022-08-14T18:50:45;4.63;;;4.22;;
8550;SDS011;4313;42.000;21.380;2022-08-14T18:53:14;4.50;;;4.10;;
8550;SDS011;4313;42.000;21.380;2022-08-14T18:55:51;5.05;;;4.55;;
8550;SDS011;4313;42.000;21.380;2022-08-14T18:58:24;5.05;;;4.55;;
8550;SDS011;4313;42.000;21.380;2022-08-14T19:00:56;5.03;;;4.53;;
8550;SDS011;4313;42.000;21.380;2022-08-14T19:15:36;6.15;;;4.90;;
8550;SDS011;4313;42.000;21.380;2022-08-14T19:18:23;5.55;;;4.88;;
8550;SDS011;4313;42.000;21.380;2022-08-14T19:20:51;5.55;;;5.03;;
8550;SDS011;4313;42.000;21.380;2022-08-14T19:23:20;5.88;;;4.70;;
8550;SDS011;4313;42.000;21.380;2022-08-14T19:25:50;5.60;;;4.72;;
8550;SDS011;4313;42.000;21.380;2022-08-14T19:28:20;5.03;;;4.53;;
8550;SDS011;4313;42.000;21.380;2022-08-14T19:30:50;5.15;;;4.60;;
8550;SDS011;4313;42.000;21.380;2022-08-14T19:33:47;5.75;;;5.10;;
8550;SDS011;4313;42.000;21.380;2022-08-14T19:36:16;5.25;;;4.72;;
8550;SDS011;4313;42.000;21.380;2022-08-14T19:38:47;4.90;;;4.35;;
8550;SDS011;4313;42.000;21.380;2022-08-14T19:41:18;5.50;;;5.00;;
8550;SDS011;4313;42.000;21.380;2022-08-14T19:43:47;5.10;;;4.60;;
8550;SDS011;4313;42.000;21.380;2022-08-14T19:46:21;5.30;;;4.80;;
8550;SDS011;4313;42.000;21.380;2022-08-14T19:48:51;5.05;;;4.55;;
8550;SDS011;4313;42.000;21.380;2022-08-14T19:51:19;5.25;;;4.75;;
8550;SDS011;4313;42.000;21.380;2022-08-14T19:53:47;5.47;;;4.80;;
8550;SDS011;4313;42.000;21.380;2022-08-14T19:56:15;5.50;;;4.85;;
8550;SDS011;4313;42.000;21.380;2022-08-14T19:58:42;6.45;;;4.93;;
8550;SDS011;4313;42.000;21.380;2022-08-14T20:01:10;5.65;;;5.15;;
8550;SDS011;4313;42.000;21.380;2022-08-14T20:03:40;7.10;;;6.32;;
8550;SDS011;4313;42.000;21.380;2022-08-14T20:06:08;5.53;;;5.03;;
8550;SDS011;4313;42.000;21.380;2022-08-14T20:08:35;5.45;;;4.95;;
8550;SDS011;4313;42.000;21.380;2022-08-14T20:11:03;5.15;;;4.65;;
8550;SDS011;4313;42.000;21.380;2022-08-14T20:13:33;5.47;;;4.97;;
8550;SDS011;4313;42.000;21.380;2022-08-14T20:16:05;5.47;;;4.82;;
8550;SDS011;4313;42.000;21.380;2022-08-14T20:18:35;5.95;;;4.68;;
8550;SDS011;4313;42.000;21.380;2022-08-14T20:21:04;4.95;;;4.45;;
8550;SDS011;4313;42.000;21.380;2022-08-14T20:23:31;6.00;;;5.18;;
8550;SDS011;4313;42.000;21.380;2022-08-14T20:25:58;5.43;;;4.90;;
8550;SDS011;4313;42.000;21.380;2022-08-14T20:28:28;6.97;;;4.53;;
8550;SDS011;4313;42.000;21.380;2022-08-14T20:31:10;5.80;;;5.13;;
8550;SDS011;4313;42.000;21.380;2022-08-14T20:33:38;7.35;;;5.47;;
8550;SDS011;4313;42.000;21.380;2022-08-14T20:36:10;6.22;;;4.93;;
8550;SDS011;4313;42.000;21.380;2022-08-14T20:38:41;8.90;;;8.00;;
8550;SDS011;4313;42.000;21.380;2022-08-14T20:41:08;6.50;;;5.78;;
8550;SDS011;4313;42.000;21.380;2022-08-14T20:43:36;5.90;;;5.15;;
8550;SDS011;4313;42.000;21.380;2022-08-14T20:46:21;9.10;;;6.35;;
8550;SDS011;4313;42.000;21.380;2022-08-14T20:48:56;7.03;;;6.00;;
8550;SDS011;4313;42.000;21.380;2022-08-14T20:51:30;8.40;;;6.38;;
8550;SDS011;4313;42.000;21.380;2022-08-14T20:54:01;7.35;;;6.15;;
8550;SDS011;4313;42.000;21.380;2022-08-14T20:56:30;8.05;;;6.68;;
8550;SDS011;4313;42.000;21.380;2022-08-14T20:59:09;8.45;;;6.65;;
8550;SDS011;4313;42.000;21.380;2022-08-14T21:01:39;8.93;;;6.85;;
8550;SDS011;4313;42.000;21.380;2022-08-14T21:04:21;7.68;;;6.85;;
8550;SDS011;4313;42.000;21.380;2022-08-14T21:06:51;8.65;;;6.82;;
8550;SDS011;4313;42.000;21.380;2022-08-14T21:09:19;7.93;;;6.78;;
8550;SDS011;4313;42.000;21.380;2022-08-14T21:11:50;8.23;;;7.32;;
8550;SDS011;4313;42.000;21.380;2022-08-14T21:14:18;9.65;;;7.28;;
8550;SDS011;4313;42.000;21.380;2022-08-14T21:16:47;7.32;;;6.25;;
8550;SDS011;4313;42.000;21.380;2022-08-14T21:19:18;8.23;;;6.75;;
8550;SDS011;4313;42.000;21.380;2022-08-14T21:21:46;8.02;;;6.70;;
8550;SDS011;4313;42.000;21.380;2022-08-14T21:24:16;9.35;;;7.10;;
8550;SDS011;4313;42.000;21.380;2022-08-14T21:26:46;8.32;;;6.95;;
8550;SDS011;4313;42.000;21.380;2022-08-14T21:29:14;7.93;;;7.13;;
8550;SDS011;4313;42.000;21.380;2022-08-14T21:31:42;7.75;;;6.95;;
8550;SDS011;4313;42.000;21.380;2022-08-14T21:34:11;10.40;;;7.70;;
8550;SDS011;4313;42.000;21.380;2022-08-14T21:36:40;8.25;;;7.40;;
8550;SDS011;4313;42.000;21.380;2022-08-14T21:39:08;12.13;;;10.35;;
8550;SDS011;4313;42.000;21.380;2022-08-14T21:41:38;10.30;;;9.02;;
8550;SDS011;4313;42.000;21.380;2022-08-14T21:44:05;11.23;;;9.00;;
8550;SDS011;4313;42.000;21.380;2022-08-14T21:46:34;11.35;;;9.90;;
8550;SDS011;4313;42.000;21.380;2022-08-14T21:49:04;11.65;;;9.45;;
8550;SDS011;4313;42.000;21.380;2022-08-14T21:51:34;12.23;;;9.65;;
8550;SDS011;4313;42.000;21.380;2022-08-14T21:54:03;11.65;;;9.38;;
8550;SDS011;4313;42.000;21.380;2022-08-14T21:56:31;11.73;;;9.30;;
8550;SDS011;4313;42.000;21.380;2022-08-14T21:59:00;11.88;;;9.15;;
8550;SDS011;4313;42.000;21.380;2022-08-14T22:01:27;10.98;;;9.05;;
8550;SDS011;4313;42.000;21.380;2022-08-14T22:03:54;12.00;;;9.63;;
8550;SDS011;4313;42.000;21.380;2022-08-14T22:06:22;12.52;;;8.48;;
8550;SDS011;4313;42.000;21.380;2022-08-14T22:08:50;11.30;;;9.30;;
8550;SDS011;4313;42.000;21.380;2022-08-14T22:11:17;10.48;;;8.68;;
8550;SDS011;4313;42.000;21.380;2022-08-14T22:13:45;10.57;;;8.82;;
8550;SDS011;4313;42.000;21.380;2022-08-14T22:16:12;10.73;;;9.00;;
8550;SDS011;4313;42.000;21.380;2022-08-14T22:18:39;12.98;;;9.18;;
8550;SDS011;4313;42.000;21.380;2022-08-14T22:21:06;10.23;;;9.15;;
8550;SDS011;4313;42.000;21.380;2022-08-14T22:23:34;10.15;;;9.07;;
8550;SDS011;4313;42.000;21.380;2022-08-14T22:26:02;12.07;;;9.80;;
8550;SDS011;4313;42.000;21.380;2022-08-14T22:28:31;11.30;;;9.65;;
8550;SDS011;4313;42.000;21.380;2022-08-14T22:30:58;10.27;;;9.13;;
8550;SDS011;4313;42.000;21.380;2022-08-14T22:33:26;10.35;;;8.40;;
8550;SDS011;4313;42.000;21.380;2022-08-14T22:35:53;12.20;;;8.93;;
8550;SDS011;4313;42.000;21.380;2022-08-14T22:38:20;10.60;;;9.10;;
8550;SDS011;4313;42.000;21.380;2022-08-14T22:40:48;9.48;;;8.27;;
8550;SDS011;4313;42.000;21.380;2022-08-14T22:43:17;10.60;;;9.23;;
8550;SDS011;4313;42.000;21.380;2022-08-14T22:45:45;10.18;;;8.93;;
8550;SDS011;4313;42.000;21.380;2022-08-14T22:48:12;11.20;;;9.13;;
8550;SDS011;4313;42.000;21.380;2022-08-14T22:50:40;11.65;;;8.98;;
8550;SDS011;4313;42.000;21.380;2022-08-14T22:53:09;11.73;;;9.30;;
8550;SDS011;4313;42.000;21.380;2022-08-14T22:55:37;9.88;;;8.88;;
8550;SDS011;4313;42.000;21.380;2022-08-14T22:58:05;10.93;;;8.85;;
8550;SDS011;4313;42.000;21.380;2022-08-14T23:00:34;9.77;;;8.38;;
8550;SDS011;4313;42.000;21.380;2022-08-14T23:03:06;10.27;;;8.85;;
8550;SDS011;4313;42.000;21.380;2022-08-14T23:05:38;10.85;;;9.18;;
8550;SDS011;4313;42.000;21.380;2022-08-14T23:08:05;10.77;;;8.77;;
8550;SDS011;4313;42.000;21.380;2022-08-14T23:10:36;11.77;;;8.63;;
8550;SDS011;4313;42.000;21.380;2022-08-14T23:13:04;10.30;;;8.93;;
8550;SDS011;4313;42.000;21.380;2022-08-14T23:15:34;9.43;;;7.78;;
8550;SDS011;4313;42.000;21.380;2022-08-14T23:18:02;10.52;;;9.20;;
8550;SDS011;4313;42.000;21.380;2022-08-14T23:20:29;10.07;;;8.98;;
8550;SDS011;4313;42.000;21.380;2022-08-14T23:22:57;11.50;;;8.57;;
8550;SDS011;4313;42.000;21.380;2022-08-14T23:25:26;10.98;;;8.93;;
8550;SDS011;4313;42.000;21.380;2022-08-14T23:27:55;10.55;;;9.02;;
8550;SDS011;4313;42.000;21.380;2022-08-14T23:30:22;10.32;;;9.23;;
8550;SDS011;4313;42.000;21.380;2022-08-14T23:32:52;11.10;;;8.65;;
8550;SDS011;4313;42.000;21.380;2022-08-14T23:38:09;9.82;;;8.75;;
8550;SDS011;4313;42.000;21.380;2022-08-14T23:40:36;11.98;;;9.73;;
8550;SDS011;4313;42.000;21.380;2022-08-14T23:43:05;11.80;;;9.60;;
8550;SDS011;4313;42.000;21.380;2022-08-14T23:45:34;12.48;;;9.70;;
8550;SDS011;4313;42.000;21.380;2022-08-14T23:48:05;11.35;;;9.38;;
8550;SDS011;4313;42.000;21.380;2022-08-14T23:50:34;10.55;;;9.45;;
8550;SDS011;4313;42.000;21.380;2022-08-14T23:53:05;12.02;;;9.55;;
8550;SDS011;4313;42.000;21.380;2022-08-14T23:55:40;10.80;;;8.95;;
8550;SDS011;4313;42.000;21.380;2022-08-14T23:58:07;11.18;;;9.07;;
